Archival Weather

Chicago O'Hare International

Chicago, Illinois (KORD)

Report from: Wednesday, February 1, 2023 10:51 AM CST
Current time: Friday, April 19, 2024 5:03 AM CDT

Current weather – Weather history – Daily summaries
Weather forecast

Temperature-6.7°C (19.9°F)
Wind chill-13.7°C (7.3°F)
Dew point-16.7°C (1.9°F)
Winds 11 kts (5.7 m/s, 12.7 mph) Southwest (220°)
Visibility10 mi. (16.1 km)
Clouds Few clouds 25,000 ft. (7,620 m)
Altimeter30.35 in.Hg (1028 mB)
Relative humidity45 %
Density altitude-3,202 ft. (-976 m)
Sea-level pressure102.9 kPa (1029 mB, 30.39 in.Hg)
Remarks Automated weather observing station with precipitation discriminator
Flight conditions Visual Meteorological Conditions
Raw dataKORD 011651Z 22011KT 10SM FEW250 M07/M17 A3035 RMK AO2 SLP291 T10671167
An error has occurred. This application may no longer respond until reloaded. Reload 🗙